createdAt,value
2023-01-19T00:01:03.654Z,97744.02
2023-01-19T00:06:14.218Z,97738.41
2023-01-19T00:11:22.151Z,97738.16
2023-01-19T00:16:29.768Z,97739.81
2023-01-19T00:21:37.465Z,97743.20
2023-01-19T00:26:45.178Z,97751.92
2023-01-19T00:31:52.712Z,97750.58
2023-01-19T00:37:02.178Z,97751.52
2023-01-19T00:42:27.371Z,97752.50
2023-01-19T00:47:34.416Z,97749.60
2023-01-19T00:52:42.200Z,97751.47
2023-01-19T00:57:49.612Z,97748.52
2023-01-19T01:02:56.988Z,97759.19
2023-01-19T01:08:04.782Z,97754.10
2023-01-19T01:18:51.579Z,97746.23
2023-01-19T01:23:59.585Z,97738.98
2023-01-19T01:29:08.689Z,97734.95
2023-01-19T01:34:16.863Z,97730.33
2023-01-19T01:39:24.351Z,97727.42
2023-01-19T01:44:52.942Z,97725.21
2023-01-19T01:50:07.990Z,97716.07
2023-01-19T01:55:18.038Z,97719.20
2023-01-19T02:00:27.214Z,97710.09
2023-01-19T02:05:37.969Z,97700.95
2023-01-19T02:11:04.422Z,97704.87
2023-01-19T02:16:13.696Z,97715.88
2023-01-19T02:21:25.352Z,97710.73
2023-01-19T02:26:36.548Z,97710.59
2023-01-19T02:31:45.683Z,97699.90
2023-01-19T02:36:58.049Z,97700.05
2023-01-19T02:42:09.613Z,97691.63
2023-01-19T02:47:17.522Z,97686.79
2023-01-19T02:52:25.305Z,97697.83
2023-01-19T02:57:48.871Z,97705.42
2023-01-19T03:03:11.855Z,97719.90
2023-01-19T03:08:32.579Z,97720.60
2023-01-19T03:13:47.096Z,97723.24
2023-01-19T03:18:56.835Z,97727.69
2023-01-19T03:24:07.624Z,97724.41
2023-01-19T03:29:17.680Z,97724.35
2023-01-19T03:34:26.161Z,97720.11
2023-01-19T03:39:35.490Z,97719.58
2023-01-19T03:44:50.764Z,97724.84
2023-01-19T03:49:59.797Z,97729.92
2023-01-19T03:55:09.972Z,97741.04
2023-01-19T04:00:19.026Z,97732.02
2023-01-19T04:05:28.456Z,97737.61
2023-01-19T04:10:36.632Z,97744.74
2023-01-19T04:15:43.795Z,97751.34
2023-01-19T04:20:51.826Z,97750.45
2023-01-19T04:26:03.045Z,97731.08
2023-01-19T04:31:10.676Z,97720.35
2023-01-19T04:36:18.554Z,97710.60
2023-01-19T04:41:26.182Z,97713.82
2023-01-19T04:46:33.706Z,97736.63
2023-01-19T04:51:41.491Z,97748.19
2023-01-19T04:56:49.486Z,97757.67
2023-01-19T05:01:57.459Z,97772.95
2023-01-19T05:07:04.838Z,97771.30
2023-01-19T05:12:12.901Z,97772.49
2023-01-19T05:17:20.156Z,97781.02
2023-01-19T05:22:27.958Z,97783.10
2023-01-19T05:27:35.607Z,97787.95
2023-01-19T05:32:43.296Z,97803.74
2023-01-19T05:37:51.206Z,97809.09
2023-01-19T05:43:01.498Z,97809.48
2023-01-19T05:48:10.688Z,97818.77
2023-01-19T05:53:18.145Z,97816.67
2023-01-19T05:58:25.821Z,97823.63
2023-01-19T06:03:33.873Z,97822.23
2023-01-19T06:08:41.895Z,97829.23
2023-01-19T06:13:49.262Z,97836.05
2023-01-19T06:18:56.558Z,97839.51
2023-01-19T06:24:02.120Z,97833.38
2023-01-19T06:29:10.272Z,97836.56
2023-01-19T06:34:17.490Z,97856.31
2023-01-19T06:39:23.797Z,97884.77
2023-01-19T06:44:30.868Z,97900.59
2023-01-19T06:49:36.543Z,97912.21
2023-01-19T06:54:45.245Z,97907.89
2023-01-19T06:59:52.909Z,97915.41
2023-01-19T07:05:00.666Z,97925.59
2023-01-19T07:10:11.900Z,97925.61
2023-01-19T07:15:23.042Z,97925.62
2023-01-19T07:20:30.566Z,97937.03
2023-01-19T07:25:38.612Z,97934.25
2023-01-19T07:30:46.498Z,97928.56
2023-01-19T07:35:54.611Z,97930.48
2023-01-19T07:41:06.316Z,97916.97
2023-01-19T07:46:13.816Z,97911.41
2023-01-19T07:51:21.301Z,97906.60
2023-01-19T07:56:28.082Z,97893.81
2023-01-19T08:01:35.875Z,97888.94
2023-01-19T08:06:47.036Z,97893.58
2023-01-19T08:11:54.314Z,97908.75
2023-01-19T08:17:02.346Z,97934.45
2023-01-19T08:22:09.681Z,97946.83
2023-01-19T08:27:16.843Z,97958.14
2023-01-19T08:32:22.516Z,97951.98
2023-01-19T08:37:29.934Z,97949.12
2023-01-19T08:42:37.217Z,97944.02
2023-01-19T08:47:44.434Z,97938.92
2023-01-19T08:52:50.004Z,97948.02
2023-01-19T08:58:01.275Z,97943.23
2023-01-19T09:03:09.956Z,97943.78
2023-01-19T09:08:17.952Z,97918.38
2023-01-19T09:13:25.894Z,97915.73
2023-01-19T09:18:33.777Z,97919.86
2023-01-19T09:23:41.298Z,97936.19
2023-01-19T09:28:48.731Z,97945.81
2023-01-19T09:33:56.144Z,97947.27
2023-01-19T09:39:03.636Z,97940.95
2023-01-19T09:44:18.803Z,97941.52
2023-01-19T09:49:32.949Z,97946.20
2023-01-19T09:54:48.518Z,97934.14
2023-01-19T09:59:59.965Z,97938.79
2023-01-19T10:05:16.395Z,97922.64
2023-01-19T10:10:27.400Z,97918.63
2023-01-19T10:15:44.131Z,97930.02
2023-01-19T10:20:57.094Z,97908.66
2023-01-19T10:26:11.613Z,97903.36
2023-01-19T10:31:23.880Z,97893.80
2023-01-19T10:36:38.510Z,97891.35
2023-01-19T10:41:50.328Z,97890.61
2023-01-19T10:46:59.959Z,97888.95
2023-01-19T10:52:10.069Z,97879.94
2023-01-19T10:57:28.051Z,97885.00
2023-01-19T11:02:36.356Z,97884.90
2023-01-19T11:07:43.818Z,97883.64
2023-01-19T11:13:03.305Z,97880.70
2023-01-19T11:18:24.431Z,97870.10
2023-01-19T11:23:34.856Z,97860.27
2023-01-19T11:28:45.168Z,97853.46
2023-01-19T11:33:55.314Z,97844.09
2023-01-19T11:39:22.203Z,97845.79
2023-01-19T11:44:33.908Z,97849.85
2023-01-19T11:49:45.721Z,97849.80
2023-01-19T11:55:02.400Z,97855.45
2023-01-19T12:00:25.199Z,97855.42
2023-01-19T12:05:36.318Z,97853.19
2023-01-19T12:10:46.441Z,97843.15
2023-01-19T12:15:59.057Z,97829.55
2023-01-19T12:21:07.179Z,97836.70
2023-01-19T12:26:39.071Z,97846.60
2023-01-19T12:31:46.391Z,97851.50
2023-01-19T12:36:57.279Z,97857.47
2023-01-19T12:42:21.482Z,97869.34
2023-01-19T12:47:28.876Z,97868.20
2023-01-19T12:52:41.828Z,97873.20
2023-01-19T12:57:57.908Z,97874.99
2023-01-19T13:03:27.335Z,97880.84
2023-01-19T13:09:03.412Z,97879.02
2023-01-19T13:14:37.822Z,97872.94
2023-01-19T13:19:56.258Z,97877.97
2023-01-19T13:25:13.236Z,97884.58
2023-01-19T13:30:27.297Z,97888.34
2023-01-19T13:35:35.053Z,97886.11
2023-01-19T13:40:44.487Z,97887.79
2023-01-19T13:45:53.722Z,97897.61
2023-01-19T13:51:06.482Z,97909.53
2023-01-19T13:56:25.713Z,97919.65
2023-01-19T14:01:34.015Z,97933.05
2023-01-19T14:06:49.710Z,97935.78
2023-01-19T14:12:14.113Z,97946.63
2023-01-19T14:17:26.055Z,97952.21
2023-01-19T14:22:47.145Z,97951.11
2023-01-19T14:28:14.564Z,97956.71
2023-01-19T14:33:36.092Z,97955.23
2023-01-19T14:50:20.110Z,97961.44
2023-01-19T14:55:33.185Z,97963.08
2023-01-19T15:00:41.291Z,97961.45
2023-01-19T15:05:51.019Z,97972.57
2023-01-19T15:11:00.000Z,97978.24
2023-01-19T15:16:10.153Z,97982.33
2023-01-19T15:21:21.830Z,97990.77
2023-01-19T15:26:30.422Z,97994.84
2023-01-19T15:31:39.089Z,97996.14
2023-01-19T15:36:47.029Z,98006.25
2023-01-19T15:41:54.589Z,98014.37
2023-01-19T15:47:03.245Z,98014.94
2023-01-19T15:52:11.574Z,98012.53
2023-01-19T15:57:19.581Z,98019.33
2023-01-19T16:02:27.425Z,98023.42
2023-01-19T16:07:36.385Z,98028.56
2023-01-19T16:12:44.773Z,98022.71
2023-01-19T16:17:53.374Z,98023.52
2023-01-19T16:23:17.011Z,98026.35
2023-01-19T16:28:24.795Z,98030.46
2023-01-19T16:33:31.420Z,98038.13
2023-01-19T16:38:38.863Z,98038.02
2023-01-19T16:43:51.033Z,98039.19
2023-01-19T16:49:05.831Z,98037.52
2023-01-19T16:54:16.204Z,98041.13
2023-01-19T16:59:24.876Z,98042.09
2023-01-19T17:04:33.962Z,98042.56
2023-01-19T17:09:41.586Z,98045.43
2023-01-19T17:14:49.593Z,98049.33
2023-01-19T17:19:57.002Z,98042.84
2023-01-19T17:25:04.819Z,98045.90
2023-01-19T17:30:15.347Z,98052.96
2023-01-19T17:35:23.215Z,98059.58
2023-01-19T17:40:31.480Z,98069.57
2023-01-19T17:45:39.811Z,98072.64
2023-01-19T17:50:47.285Z,98079.16
2023-01-19T17:55:55.184Z,98085.15
2023-01-19T18:01:11.863Z,98082.34
2023-01-19T18:06:19.861Z,98080.86
2023-01-19T18:11:28.393Z,98076.29
2023-01-19T18:16:36.464Z,98080.48
2023-01-19T18:21:43.860Z,98082.18
2023-01-19T18:26:53.717Z,98088.48
2023-01-19T18:32:02.818Z,98084.02
2023-01-19T18:37:08.439Z,98082.83
2023-01-19T18:42:15.673Z,98092.41
2023-01-19T18:47:22.883Z,98091.80
2023-01-19T18:52:32.541Z,98091.65
2023-01-19T18:57:39.747Z,98083.30
2023-01-19T19:02:48.007Z,98080.60
2023-01-19T19:07:55.378Z,98087.83
2023-01-19T19:13:03.597Z,98088.83
2023-01-19T19:18:14.066Z,98104.39
2023-01-19T19:23:22.059Z,98129.41
2023-01-19T19:28:31.561Z,98146.65
2023-01-19T19:33:39.524Z,98153.23
2023-01-19T19:38:48.554Z,98156.59
2023-01-19T19:43:56.702Z,98156.09
2023-01-19T19:49:04.240Z,98156.67
2023-01-19T19:54:12.080Z,98169.75
2023-01-19T19:59:19.977Z,98181.15
2023-01-19T20:04:28.531Z,98183.39
2023-01-19T20:09:37.589Z,98214.13
2023-01-19T20:14:45.089Z,98222.09
2023-01-19T20:19:52.819Z,98226.15
2023-01-19T20:25:00.787Z,98242.22
2023-01-19T20:30:15.535Z,98242.98
2023-01-19T20:35:23.392Z,98248.66
2023-01-19T20:40:31.252Z,98259.83
2023-01-19T20:52:46.059Z,98265.97
2023-01-19T20:57:53.473Z,98266.16
2023-01-19T21:03:01.297Z,98266.53
2023-01-19T21:08:09.159Z,98274.27
2023-01-19T21:13:16.411Z,98272.27
2023-01-19T21:18:25.084Z,98267.28
2023-01-19T21:23:32.626Z,98262.05
2023-01-19T21:28:40.603Z,98264.09
2023-01-19T21:33:49.376Z,98279.02
2023-01-19T21:39:01.157Z,98289.85
2023-01-19T21:44:09.611Z,98301.35
2023-01-19T21:49:20.195Z,98315.62
2023-01-19T21:54:29.827Z,98324.22
2023-01-19T21:59:37.159Z,98334.45
2023-01-19T22:04:44.759Z,98333.32
2023-01-19T22:09:52.574Z,98337.48
2023-01-19T22:14:59.959Z,98331.52
2023-01-19T22:20:09.843Z,98330.55
2023-01-19T22:25:17.850Z,98337.11
2023-01-19T22:30:26.601Z,98351.59
2023-01-19T22:35:34.291Z,98356.85
2023-01-19T22:40:41.844Z,98360.44
2023-01-19T22:45:49.413Z,98368.21
2023-01-19T22:51:00.530Z,98372.78
2023-01-19T22:56:16.066Z,98379.27
2023-01-19T23:01:25.841Z,98376.08
2023-01-19T23:06:35.985Z,98381.24
2023-01-19T23:11:45.322Z,98386.88
2023-01-19T23:16:52.923Z,98396.12
2023-01-19T23:22:00.433Z,98412.88
2023-01-19T23:27:08.138Z,98418.59
2023-01-19T23:32:15.680Z,98414.48
2023-01-19T23:37:23.647Z,98409.41
2023-01-19T23:42:32.396Z,98411.27
2023-01-19T23:47:43.805Z,98415.41
2023-01-19T23:52:52.857Z,98422.33
2023-01-19T23:58:01.471Z,98418.18
